sensor_id;sensor_type;location;lat;lon;timestamp;pressure;altitude;pressure_sealevel;temperature;humidity
43312;BME280;30041;48.300;16.352;2023-12-28T00:01:50;100186.25;;;22.21;42.62
43312;BME280;30041;48.300;16.352;2023-12-28T00:04:16;100182.97;;;22.18;42.56
43312;BME280;30041;48.300;16.352;2023-12-28T00:06:47;100180.50;;;22.17;42.63
43312;BME280;30041;48.300;16.352;2023-12-28T00:09:13;100188.75;;;22.22;42.61
43312;BME280;30041;48.300;16.352;2023-12-28T00:11:39;100197.88;;;22.21;42.67
43312;BME280;30041;48.300;16.352;2023-12-28T00:14:05;100186.72;;;22.17;42.60
43312;BME280;30041;48.300;16.352;2023-12-28T00:16:31;100189.41;;;22.17;42.50
43312;BME280;30041;48.300;16.352;2023-12-28T00:18:57;100186.72;;;22.17;42.58
43312;BME280;30041;48.300;16.352;2023-12-28T00:21:23;100185.66;;;22.18;42.49
43312;BME280;30041;48.300;16.352;2023-12-28T00:23:49;100190.84;;;22.20;42.54
43312;BME280;30041;48.300;16.352;2023-12-28T00:26:14;100196.22;;;22.20;42.36
43312;BME280;30041;48.300;16.352;2023-12-28T00:28:40;100199.16;;;22.18;42.49
43312;BME280;30041;48.300;16.352;2023-12-28T00:31:06;100201.84;;;22.18;42.71
43312;BME280;30041;48.300;16.352;2023-12-28T00:33:32;100205.38;;;22.19;42.50
43312;BME280;30041;48.300;16.352;2023-12-28T00:35:57;100204.56;;;22.18;42.30
43312;BME280;30041;48.300;16.352;2023-12-28T00:38:25;100213.94;;;22.16;42.54
43312;BME280;30041;48.300;16.352;2023-12-28T00:40:51;100217.69;;;22.15;42.45
43312;BME280;30041;48.300;16.352;2023-12-28T00:43:17;100222.63;;;22.18;42.47
43312;BME280;30041;48.300;16.352;2023-12-28T00:45:43;100207.50;;;22.17;42.31
43312;BME280;30041;48.300;16.352;2023-12-28T00:48:08;100216.41;;;22.17;42.49
43312;BME280;30041;48.300;16.352;2023-12-28T00:50:34;100207.50;;;22.17;42.23
43312;BME280;30041;48.300;16.352;2023-12-28T00:53:00;100199.16;;;22.18;42.33
43312;BME280;30041;48.300;16.352;2023-12-28T00:55:25;100197.53;;;22.17;42.19
43312;BME280;30041;48.300;16.352;2023-12-28T00:57:51;100188.81;;;22.15;42.23
43312;BME280;30041;48.300;16.352;2023-12-28T01:00:17;100190.94;;;22.13;42.42
43312;BME280;30041;48.300;16.352;2023-12-28T01:02:42;100191.53;;;22.15;42.22
43312;BME280;30041;48.300;16.352;2023-12-28T01:05:08;100189.84;;;22.14;42.14
43312;BME280;30041;48.300;16.352;2023-12-28T01:07:34;100197.34;;;22.12;42.32
43312;BME280;30041;48.300;16.352;2023-12-28T01:09:59;100201.72;;;22.13;42.29
43312;BME280;30041;48.300;16.352;2023-12-28T01:12:25;100196.31;;;22.13;42.37
43312;BME280;30041;48.300;16.352;2023-12-28T01:14:51;100200.66;;;22.14;42.39
43312;BME280;30041;48.300;16.352;2023-12-28T01:17:19;100197.13;;;22.14;42.19
43312;BME280;30041;48.300;16.352;2023-12-28T01:19:45;100191.97;;;22.12;42.13
43312;BME280;30041;48.300;16.352;2023-12-28T01:22:11;100191.97;;;22.12;42.06
43312;BME280;30041;48.300;16.352;2023-12-28T01:24:36;100188.22;;;22.13;42.12
43312;BME280;30041;48.300;16.352;2023-12-28T01:27:02;100187.63;;;22.11;42.12
43312;BME280;30041;48.300;16.352;2023-12-28T01:29:30;100192.22;;;22.11;42.30
43312;BME280;30041;48.300;16.352;2023-12-28T01:31:56;100189.50;;;22.11;42.34
43312;BME280;30041;48.300;16.352;2023-12-28T01:34:22;100183.28;;;22.10;42.24
43312;BME280;30041;48.300;16.352;2023-12-28T01:36:47;100191.63;;;22.09;42.12
43312;BME280;30041;48.300;16.352;2023-12-28T01:39:13;100187.03;;;22.09;42.17
43312;BME280;30041;48.300;16.352;2023-12-28T01:41:38;100184.34;;;22.09;42.15
43312;BME280;30041;48.300;16.352;2023-12-28T01:44:04;100182.69;;;22.08;41.93
43312;BME280;30041;48.300;16.352;2023-12-28T01:46:30;100180.81;;;22.09;42.33
43312;BME280;30041;48.300;16.352;2023-12-28T01:48:56;100178.94;;;22.09;41.98
43312;BME280;30041;48.300;16.352;2023-12-28T01:51:23;100179.53;;;22.11;42.00
43312;BME280;30041;48.300;16.352;2023-12-28T01:53:50;100173.75;;;22.08;42.09
43312;BME280;30041;48.300;16.352;2023-12-28T01:56:18;100173.75;;;22.08;42.18
43312;BME280;30041;48.300;16.352;2023-12-28T01:58:44;100173.75;;;22.08;42.01
43312;BME280;30041;48.300;16.352;2023-12-28T02:01:11;100166.94;;;22.05;42.10
43312;BME280;30041;48.300;16.352;2023-12-28T02:03:38;100174.59;;;22.08;42.01
43312;BME280;30041;48.300;16.352;2023-12-28T02:06:04;100170.25;;;22.07;42.01
43312;BME280;30041;48.300;16.352;2023-12-28T02:08:31;100168.59;;;22.06;41.93
43312;BME280;30041;48.300;16.352;2023-12-28T02:11:00;100167.53;;;22.07;41.85
43312;BME280;30041;48.300;16.352;2023-12-28T02:13:26;100150.53;;;22.07;41.94
43312;BME280;30041;48.300;16.352;2023-12-28T02:15:57;100146.53;;;22.09;42.07
43312;BME280;30041;48.300;16.352;2023-12-28T02:18:31;100156.75;;;22.07;41.98
43312;BME280;30041;48.300;16.352;2023-12-28T02:21:01;100153.44;;;22.05;42.12
43312;BME280;30041;48.300;16.352;2023-12-28T02:23:28;100141.63;;;22.06;42.12
43312;BME280;30041;48.300;16.352;2023-12-28T02:25:53;100138.06;;;22.06;42.03
43312;BME280;30041;48.300;16.352;2023-12-28T02:28:21;100144.31;;;22.06;41.95
43312;BME280;30041;48.300;16.352;2023-12-28T02:30:47;100141.00;;;22.04;41.83
43312;BME280;30041;48.300;16.352;2023-12-28T02:33:19;100146.16;;;22.06;42.04
43312;BME280;30041;48.300;16.352;2023-12-28T02:35:52;100145.34;;;22.05;41.95
43312;BME280;30041;48.300;16.352;2023-12-28T02:38:21;100142.06;;;22.03;42.02
43312;BME280;30041;48.300;16.352;2023-12-28T02:40:49;100143.13;;;22.02;41.91
43312;BME280;30041;48.300;16.352;2023-12-28T02:43:16;100141.25;;;22.03;41.87
43312;BME280;30041;48.300;16.352;2023-12-28T02:45:41;100140.19;;;22.04;41.97
43312;BME280;30041;48.300;16.352;2023-12-28T02:48:07;100148.53;;;22.02;41.98
43312;BME280;30041;48.300;16.352;2023-12-28T02:50:34;100159.31;;;22.02;42.05
43312;BME280;30041;48.300;16.352;2023-12-28T02:53:00;100163.03;;;22.01;42.12
43312;BME280;30041;48.300;16.352;2023-12-28T02:55:26;100160.34;;;22.01;41.97
43312;BME280;30041;48.300;16.352;2023-12-28T02:57:55;100162.00;;;22.02;42.04
43312;BME280;30041;48.300;16.352;2023-12-28T03:00:21;100158.72;;;22.00;41.93
43312;BME280;30041;48.300;16.352;2023-12-28T03:02:47;100157.91;;;22.00;41.96
43312;BME280;30041;48.300;16.352;2023-12-28T03:05:13;100166.00;;;22.00;41.92
43312;BME280;30041;48.300;16.352;2023-12-28T03:07:38;100167.03;;;21.98;42.10
43312;BME280;30041;48.300;16.352;2023-12-28T03:10:05;100163.50;;;21.98;42.14
43312;BME280;30041;48.300;16.352;2023-12-28T03:12:30;100158.13;;;21.98;42.07
43312;BME280;30041;48.300;16.352;2023-12-28T03:14:56;100159.19;;;21.97;41.93
43312;BME280;30041;48.300;16.352;2023-12-28T03:17:22;100157.06;;;21.99;42.06
43312;BME280;30041;48.300;16.352;2023-12-28T03:19:47;100164.31;;;21.98;41.94
43312;BME280;30041;48.300;16.352;2023-12-28T03:22:13;100165.16;;;21.99;41.97
43312;BME280;30041;48.300;16.352;2023-12-28T03:24:39;100166.22;;;21.98;42.07
43312;BME280;30041;48.300;16.352;2023-12-28T03:27:05;100160.81;;;21.98;42.07
43312;BME280;30041;48.300;16.352;2023-12-28T03:29:31;100164.56;;;21.97;42.05
43312;BME280;30041;48.300;16.352;2023-12-28T03:31:57;100162.91;;;21.96;41.91
43312;BME280;30041;48.300;16.352;2023-12-28T03:34:23;100162.91;;;21.96;42.04
43312;BME280;30041;48.300;16.352;2023-12-28T03:36:51;100168.09;;;21.97;41.99
43312;BME280;30041;48.300;16.352;2023-12-28T03:39:17;100162.69;;;21.97;42.13
43312;BME280;30041;48.300;16.352;2023-12-28T03:41:45;100160.22;;;21.96;41.88
43312;BME280;30041;48.300;16.352;2023-12-28T03:44:10;100161.03;;;21.96;41.92
43312;BME280;30041;48.300;16.352;2023-12-28T03:46:36;100169.97;;;21.97;41.93
43312;BME280;30041;48.300;16.352;2023-12-28T03:49:02;100161.28;;;21.95;41.94
43312;BME280;30041;48.300;16.352;2023-12-28T03:51:27;100153.19;;;21.95;41.82
43312;BME280;30041;48.300;16.352;2023-12-28T03:53:56;100156.91;;;21.94;41.89
43312;BME280;30041;48.300;16.352;2023-12-28T03:56:23;100151.75;;;21.92;42.07
43312;BME280;30041;48.300;16.352;2023-12-28T03:58:50;100159.63;;;21.94;42.02
43312;BME280;30041;48.300;16.352;2023-12-28T04:01:19;100152.34;;;21.94;41.95
43312;BME280;30041;48.300;16.352;2023-12-28T04:03:46;100149.88;;;21.93;41.79
43312;BME280;30041;48.300;16.352;2023-12-28T04:06:12;100161.50;;;21.93;42.09
43312;BME280;30041;48.300;16.352;2023-12-28T04:08:39;100156.91;;;21.94;41.88
43312;BME280;30041;48.300;16.352;2023-12-28T04:11:05;100166.69;;;21.95;41.89
43312;BME280;30041;48.300;16.352;2023-12-28T04:13:31;100164.78;;;21.95;41.93
43312;BME280;30041;48.300;16.352;2023-12-28T04:15:56;100187.81;;;21.98;41.97
43312;BME280;30041;48.300;16.352;2023-12-28T04:18:22;100186.16;;;21.97;41.83
43312;BME280;30041;48.300;16.352;2023-12-28T04:20:48;100195.44;;;22.01;41.83
43312;BME280;30041;48.300;16.352;2023-12-28T04:23:16;100186.31;;;22.02;41.90
43312;BME280;30041;48.300;16.352;2023-12-28T04:25:44;100181.13;;;22.01;41.82
43312;BME280;30041;48.300;16.352;2023-12-28T04:28:10;100194.63;;;22.01;41.95
43312;BME280;30041;48.300;16.352;2023-12-28T04:30:35;100191.69;;;22.02;41.87
43312;BME280;30041;48.300;16.352;2023-12-28T04:33:01;100190.41;;;22.05;41.81
43312;BME280;30041;48.300;16.352;2023-12-28T04:35:27;100187.50;;;22.06;41.74
43312;BME280;30041;48.300;16.352;2023-12-28T04:37:53;100201.59;;;22.08;41.90
43312;BME280;30041;48.300;16.352;2023-12-28T04:40:19;100198.44;;;22.11;41.84
43312;BME280;30041;48.300;16.352;2023-12-28T04:42:44;100208.31;;;22.17;41.80
43312;BME280;30041;48.300;16.352;2023-12-28T04:45:10;100208.06;;;22.19;41.88
43312;BME280;30041;48.300;16.352;2023-12-28T04:47:36;100204.34;;;22.20;41.88
43312;BME280;30041;48.300;16.352;2023-12-28T04:50:03;100207.84;;;22.21;41.98
43312;BME280;30041;48.300;16.352;2023-12-28T04:52:28;100224.69;;;22.23;41.66
43312;BME280;30041;48.300;16.352;2023-12-28T04:54:54;100225.50;;;22.23;41.83
43312;BME280;30041;48.300;16.352;2023-12-28T04:57:20;100224.22;;;22.26;41.88
43312;BME280;30041;48.300;16.352;2023-12-28T04:59:45;100235.59;;;22.28;41.97
43312;BME280;30041;48.300;16.352;2023-12-28T05:02:11;100236.47;;;22.28;41.88
43312;BME280;30041;48.300;16.352;2023-12-28T05:04:37;100237.03;;;22.30;41.75
43312;BME280;30041;48.300;16.352;2023-12-28T05:07:05;100242.44;;;22.30;41.96
43312;BME280;30041;48.300;16.352;2023-12-28T05:09:31;100232.22;;;22.32;41.73
43312;BME280;30041;48.300;16.352;2023-12-28T05:12:00;100234.09;;;22.32;41.89
43312;BME280;30041;48.300;16.352;2023-12-28T05:14:26;100244.69;;;22.33;41.84
43312;BME280;30041;48.300;16.352;2023-12-28T05:16:51;100235.53;;;22.34;42.05
43312;BME280;30041;48.300;16.352;2023-12-28T05:19:17;100228.50;;;22.33;41.92
43312;BME280;30041;48.300;16.352;2023-12-28T05:21:43;100238.00;;;22.36;41.73
43312;BME280;30041;48.300;16.352;2023-12-28T05:24:08;100230.50;;;22.38;41.83
43312;BME280;30041;48.300;16.352;2023-12-28T05:26:35;100214.78;;;22.35;41.90
43312;BME280;30041;48.300;16.352;2023-12-28T05:29:00;100214.28;;;22.38;41.69
43312;BME280;30041;48.300;16.352;2023-12-28T05:31:26;100216.78;;;22.40;41.80
43312;BME280;30041;48.300;16.352;2023-12-28T05:33:52;100197.88;;;22.40;41.77
43312;BME280;30041;48.300;16.352;2023-12-28T05:36:18;100230.88;;;22.42;41.92
43312;BME280;30041;48.300;16.352;2023-12-28T05:38:43;100214.06;;;22.40;41.92
43312;BME280;30041;48.300;16.352;2023-12-28T05:41:12;100217.59;;;22.40;41.79
43312;BME280;30041;48.300;16.352;2023-12-28T05:43:38;100210.91;;;22.43;41.80
43312;BME280;30041;48.300;16.352;2023-12-28T05:46:09;100218.78;;;22.44;41.86
43312;BME280;30041;48.300;16.352;2023-12-28T05:48:35;100217.94;;;22.44;41.82
43312;BME280;30041;48.300;16.352;2023-12-28T05:51:01;100225.81;;;22.45;41.57
43312;BME280;30041;48.300;16.352;2023-12-28T05:53:26;100231.00;;;22.47;41.70
43312;BME280;30041;48.300;16.352;2023-12-28T05:55:52;100239.91;;;22.47;41.80
43312;BME280;30041;48.300;16.352;2023-12-28T05:58:18;100241.59;;;22.48;41.78
43312;BME280;30041;48.300;16.352;2023-12-28T06:00:44;100240.31;;;22.51;41.81
43312;BME280;30041;48.300;16.352;2023-12-28T06:03:09;100247.44;;;22.45;41.71
43312;BME280;30041;48.300;16.352;2023-12-28T06:05:35;100247.09;;;22.42;41.96
43312;BME280;30041;48.300;16.352;2023-12-28T06:08:01;100238.97;;;22.42;41.99
43312;BME280;30041;48.300;16.352;2023-12-28T06:10:32;100236.84;;;22.44;41.79
43312;BME280;30041;48.300;16.352;2023-12-28T06:12:57;100236.28;;;22.42;42.07
43312;BME280;30041;48.300;16.352;2023-12-28T06:15:23;100240.41;;;22.44;41.96
43312;BME280;30041;48.300;16.352;2023-12-28T06:17:49;100231.22;;;22.45;41.80
43312;BME280;30041;48.300;16.352;2023-12-28T06:20:14;100231.22;;;22.45;41.96
43312;BME280;30041;48.300;16.352;2023-12-28T06:22:40;100236.63;;;22.45;41.99
43312;BME280;30041;48.300;16.352;2023-12-28T06:25:06;100247.44;;;22.45;41.84
43312;BME280;30041;48.300;16.352;2023-12-28T06:27:32;100249.91;;;22.47;41.71
43312;BME280;30041;48.300;16.352;2023-12-28T06:29:58;100254.84;;;22.50;41.92
43312;BME280;30041;48.300;16.352;2023-12-28T06:32:23;100253.81;;;22.51;41.60
43312;BME280;30041;48.300;16.352;2023-12-28T06:34:49;100249.00;;;22.53;41.52
43312;BME280;30041;48.300;16.352;2023-12-28T06:37:15;100255.09;;;22.48;41.13
43312;BME280;30041;48.300;16.352;2023-12-28T06:39:41;100251.53;;;22.48;41.15
43312;BME280;30041;48.300;16.352;2023-12-28T06:42:07;100250.72;;;22.47;41.16
43312;BME280;30041;48.300;16.352;2023-12-28T06:44:36;100260.22;;;22.38;41.06
43312;BME280;30041;48.300;16.352;2023-12-28T06:47:01;100257.59;;;22.31;41.53
43312;BME280;30041;48.300;16.352;2023-12-28T06:49:27;100250.19;;;22.27;41.63
43312;BME280;30041;48.300;16.352;2023-12-28T06:51:53;100259.91;;;22.28;41.86
43312;BME280;30041;48.300;16.352;2023-12-28T06:54:18;100253.91;;;22.26;42.01
43312;BME280;30041;48.300;16.352;2023-12-28T06:56:44;100260.38;;;22.25;41.93
43312;BME280;30041;48.300;16.352;2023-12-28T06:59:10;100260.16;;;22.26;41.92
43312;BME280;30041;48.300;16.352;2023-12-28T07:01:36;100258.72;;;22.24;42.11
43312;BME280;30041;48.300;16.352;2023-12-28T07:04:01;100254.16;;;22.24;42.00
43312;BME280;30041;48.300;16.352;2023-12-28T07:06:27;100256.88;;;22.24;42.18
43312;BME280;30041;48.300;16.352;2023-12-28T07:08:52;100273.28;;;22.23;42.04
43312;BME280;30041;48.300;16.352;2023-12-28T07:11:18;100267.88;;;22.23;42.29
43312;BME280;30041;48.300;16.352;2023-12-28T07:13:43;100268.06;;;22.21;42.39
43312;BME280;30041;48.300;16.352;2023-12-28T07:16:09;100275.16;;;22.22;42.34
43312;BME280;30041;48.300;16.352;2023-12-28T07:18:35;100263.53;;;22.22;42.24
43312;BME280;30041;48.300;16.352;2023-12-28T07:21:00;100262.47;;;22.23;42.29
43312;BME280;30041;48.300;16.352;2023-12-28T07:23:26;100269.50;;;22.24;42.36
43312;BME280;30041;48.300;16.352;2023-12-28T07:25:52;100271.78;;;22.27;42.25
43312;BME280;30041;48.300;16.352;2023-12-28T07:28:18;100267.19;;;22.27;42.39
43312;BME280;30041;48.300;16.352;2023-12-28T07:30:43;100278.81;;;22.28;42.42
43312;BME280;30041;48.300;16.352;2023-12-28T07:33:12;100273.66;;;22.26;42.43
43312;BME280;30041;48.300;16.352;2023-12-28T07:35:38;100275.50;;;22.26;42.87
43312;BME280;30041;48.300;16.352;2023-12-28T07:38:06;100279.41;;;22.30;42.17
43312;BME280;30041;48.300;16.352;2023-12-28T07:40:32;100271.78;;;22.27;42.15
43312;BME280;30041;48.300;16.352;2023-12-28T07:42:57;100268.69;;;22.23;42.50
43312;BME280;30041;48.300;16.352;2023-12-28T07:45:23;100267.66;;;22.24;42.45
43312;BME280;30041;48.300;16.352;2023-12-28T07:47:50;100270.38;;;22.24;42.37
43312;BME280;30041;48.300;16.352;2023-12-28T07:50:16;100280.31;;;22.24;42.46
43312;BME280;30041;48.300;16.352;2023-12-28T07:52:42;100280.31;;;22.24;42.52
43312;BME280;30041;48.300;16.352;2023-12-28T07:55:08;100283.00;;;22.24;42.57
43312;BME280;30041;48.300;16.352;2023-12-28T07:57:34;100284.91;;;22.23;42.69
43312;BME280;30041;48.300;16.352;2023-12-28T08:00:00;100281.97;;;22.25;42.75
43312;BME280;30041;48.300;16.352;2023-12-28T08:02:25;100278.22;;;22.26;42.57
43312;BME280;30041;48.300;16.352;2023-12-28T08:04:51;100275.75;;;22.24;42.67
43312;BME280;30041;48.300;16.352;2023-12-28T08:07:17;100258.28;;;22.27;42.66
43312;BME280;30041;48.300;16.352;2023-12-28T08:09:42;100263.91;;;22.25;42.61
43312;BME280;30041;48.300;16.352;2023-12-28T08:12:11;100275.50;;;22.26;42.64
43312;BME280;30041;48.300;16.352;2023-12-28T08:14:36;100275.09;;;22.29;42.52
43312;BME280;30041;48.300;16.352;2023-12-28T08:17:02;100279.88;;;22.27;42.52
43312;BME280;30041;48.300;16.352;2023-12-28T08:19:28;100276.56;;;22.25;42.33
43312;BME280;30041;48.300;16.352;2023-12-28T08:21:53;100287.38;;;22.25;42.32
43312;BME280;30041;48.300;16.352;2023-12-28T08:24:19;100300.06;;;22.24;42.47
43312;BME280;30041;48.300;16.352;2023-12-28T08:26:45;100301.91;;;22.24;42.48
43312;BME280;30041;48.300;16.352;2023-12-28T08:29:13;100302.16;;;22.22;42.31
43312;BME280;30041;48.300;16.352;2023-12-28T08:31:39;100308.56;;;22.21;42.52
43312;BME280;30041;48.300;16.352;2023-12-28T08:34:05;100300.72;;;22.20;42.22
43312;BME280;30041;48.300;16.352;2023-12-28T08:36:30;100299.88;;;22.19;42.41
43312;BME280;30041;48.300;16.352;2023-12-28T08:38:56;100297.13;;;22.26;42.47
43312;BME280;30041;48.300;16.352;2023-12-28T08:41:22;100301.19;;;22.35;42.37
43312;BME280;30041;48.300;16.352;2023-12-28T08:43:48;100289.00;;;22.44;42.34
43312;BME280;30041;48.300;16.352;2023-12-28T08:46:17;100289.81;;;22.45;42.12
43312;BME280;30041;48.300;16.352;2023-12-28T08:48:43;100303.94;;;22.47;41.92
43312;BME280;30041;48.300;16.352;2023-12-28T08:53:39;100311.34;;;22.51;42.03
43312;BME280;30041;48.300;16.352;2023-12-28T08:56:20;100314.22;;;22.68;42.13
43312;BME280;30041;48.300;16.352;2023-12-28T08:58:46;100315.22;;;22.86;41.97
43312;BME280;30041;48.300;16.352;2023-12-28T09:01:22;100321.72;;;22.96;42.08
43312;BME280;30041;48.300;16.352;2023-12-28T09:03:50;100317.31;;;23.02;42.05
43312;BME280;30041;48.300;16.352;2023-12-28T09:06:17;100322.63;;;23.09;42.48
43312;BME280;30041;48.300;16.352;2023-12-28T09:08:47;100320.84;;;23.14;42.05
43312;BME280;30041;48.300;16.352;2023-12-28T09:11:13;100323.22;;;23.11;41.57
43312;BME280;30041;48.300;16.352;2023-12-28T09:13:39;100322.78;;;22.95;41.37
43312;BME280;30041;48.300;16.352;2023-12-28T09:16:06;100325.81;;;22.87;41.41
43312;BME280;30041;48.300;16.352;2023-12-28T09:18:32;100321.41;;;22.74;42.00
43312;BME280;30041;48.300;16.352;2023-12-28T09:21:01;100325.03;;;22.68;41.92
43312;BME280;30041;48.300;16.352;2023-12-28T09:23:27;100323.94;;;22.57;40.61
43312;BME280;30041;48.300;16.352;2023-12-28T09:25:53;100317.78;;;22.50;41.04
43312;BME280;30041;48.300;16.352;2023-12-28T09:28:19;100308.88;;;22.50;41.24
43312;BME280;30041;48.300;16.352;2023-12-28T09:30:49;100306.06;;;22.56;41.44
43312;BME280;30041;48.300;16.352;2023-12-28T09:33:15;100309.25;;;22.53;41.32
43312;BME280;30041;48.300;16.352;2023-12-28T09:35:41;100303.72;;;22.48;41.07
43312;BME280;30041;48.300;16.352;2023-12-28T09:38:07;100305.34;;;22.49;41.11
43312;BME280;30041;48.300;16.352;2023-12-28T09:40:33;100289.53;;;22.53;41.15
43312;BME280;30041;48.300;16.352;2023-12-28T09:45:32;100300.81;;;22.62;41.11
43312;BME280;30041;48.300;16.352;2023-12-28T09:47:57;100296.59;;;22.66;41.20
43312;BME280;30041;48.300;16.352;2023-12-28T09:50:23;100293.63;;;22.55;41.69
43312;BME280;30041;48.300;16.352;2023-12-28T09:55:14;100289.00;;;22.44;41.89
43312;BME280;30041;48.300;16.352;2023-12-28T09:57:40;100289.69;;;22.40;42.38
43312;BME280;30041;48.300;16.352;2023-12-28T10:00:06;100283.69;;;22.37;42.18
43312;BME280;30041;48.300;16.352;2023-12-28T10:02:33;100283.09;;;22.35;42.35
43312;BME280;30041;48.300;16.352;2023-12-28T10:05:02;100275.44;;;22.32;42.38
43312;BME280;30041;48.300;16.352;2023-12-28T10:07:39;100269.25;;;22.44;42.27
43312;BME280;30041;48.300;16.352;2023-12-28T10:10:06;100262.63;;;22.58;42.08
43312;BME280;30041;48.300;16.352;2023-12-28T10:12:35;100264.50;;;22.57;41.17
43312;BME280;30041;48.300;16.352;2023-12-28T10:15:00;100268.09;;;22.40;39.49
43312;BME280;30041;48.300;16.352;2023-12-28T10:17:26;100272.72;;;22.32;41.03
43312;BME280;30041;48.300;16.352;2023-12-28T10:19:53;100260.81;;;22.40;41.39
43312;BME280;30041;48.300;16.352;2023-12-28T10:22:19;100256.22;;;22.41;41.46
43312;BME280;30041;48.300;16.352;2023-12-28T10:24:46;100252.81;;;22.45;41.57
43312;BME280;30041;48.300;16.352;2023-12-28T10:27:16;100245.78;;;22.44;41.52
43312;BME280;30041;48.300;16.352;2023-12-28T10:29:42;100246.38;;;22.46;41.66
43312;BME280;30041;48.300;16.352;2023-12-28T10:32:08;100240.75;;;22.48;41.76
43312;BME280;30041;48.300;16.352;2023-12-28T10:34:34;100239.44;;;22.50;41.72
43312;BME280;30041;48.300;16.352;2023-12-28T10:37:03;100240.91;;;22.53;41.77
43312;BME280;30041;48.300;16.352;2023-12-28T10:39:35;100231.13;;;22.52;41.68
43312;BME280;30041;48.300;16.352;2023-12-28T10:42:08;100241.94;;;22.52;41.91
43312;BME280;30041;48.300;16.352;2023-12-28T10:44:35;100233.00;;;22.51;41.84
43312;BME280;30041;48.300;16.352;2023-12-28T10:47:08;100234.91;;;22.51;41.85
43312;BME280;30041;48.300;16.352;2023-12-28T10:49:39;100227.84;;;22.50;42.04
43312;BME280;30041;48.300;16.352;2023-12-28T10:52:08;100222.81;;;22.53;41.97
43312;BME280;30041;48.300;16.352;2023-12-28T10:54:47;100217.63;;;22.52;41.89
43312;BME280;30041;48.300;16.352;2023-12-28T10:57:28;100220.31;;;22.52;41.89
43312;BME280;30041;48.300;16.352;2023-12-28T11:00:10;100220.31;;;22.52;42.02
43312;BME280;30041;48.300;16.352;2023-12-28T11:02:44;100218.31;;;22.47;41.93
43312;BME280;30041;48.300;16.352;2023-12-28T11:05:12;100217.28;;;22.48;41.91
43312;BME280;30041;48.300;16.352;2023-12-28T11:07:38;100215.63;;;22.47;42.04
43312;BME280;30041;48.300;16.352;2023-12-28T11:10:06;100203.19;;;22.46;42.20
43312;BME280;30041;48.300;16.352;2023-12-28T11:12:32;100201.28;;;22.47;42.08
43312;BME280;30041;48.300;16.352;2023-12-28T11:14:59;100202.94;;;22.48;42.04
43312;BME280;30041;48.300;16.352;2023-12-28T11:17:28;100211.28;;;22.46;42.00
43312;BME280;30041;48.300;16.352;2023-12-28T11:20:00;100201.50;;;22.45;41.98
43312;BME280;30041;48.300;16.352;2023-12-28T11:22:29;100211.28;;;22.46;42.32
43312;BME280;30041;48.300;16.352;2023-12-28T11:24:56;100207.13;;;22.44;42.40
43312;BME280;30041;48.300;16.352;2023-12-28T11:27:24;100202.59;;;22.44;42.19
43312;BME280;30041;48.300;16.352;2023-12-28T11:29:51;100198.47;;;22.42;42.14
43312;BME280;30041;48.300;16.352;2023-12-28T11:32:17;100199.88;;;22.44;42.34
43312;BME280;30041;48.300;16.352;2023-12-28T11:34:44;100189.06;;;22.44;42.33
43312;BME280;30041;48.300;16.352;2023-12-28T11:37:19;100185.31;;;22.45;42.35
43312;BME280;30041;48.300;16.352;2023-12-28T11:39:51;100183.91;;;22.43;42.27
43312;BME280;30041;48.300;16.352;2023-12-28T11:42:21;100172.28;;;22.42;42.35
43312;BME280;30041;48.300;16.352;2023-12-28T11:44:47;100183.78;;;22.37;42.31
43312;BME280;30041;48.300;16.352;2023-12-28T11:47:20;100180.81;;;22.39;42.38
43312;BME280;30041;48.300;16.352;2023-12-28T11:49:49;100176.00;;;22.41;42.50
43312;BME280;30041;48.300;16.352;2023-12-28T11:52:28;100173.56;;;22.40;42.53
43312;BME280;30041;48.300;16.352;2023-12-28T11:54:55;100176.25;;;22.40;42.49
43312;BME280;30041;48.300;16.352;2023-12-28T11:57:24;100160.28;;;22.38;42.60
43312;BME280;30041;48.300;16.352;2023-12-28T11:59:59;100177.31;;;22.38;42.74
43312;BME280;30041;48.300;16.352;2023-12-28T12:02:28;100175.88;;;22.36;42.69
43312;BME280;30041;48.300;16.352;2023-12-28T12:04:54;100174.00;;;22.36;42.75
43312;BME280;30041;48.300;16.352;2023-12-28T12:07:20;100166.72;;;22.37;42.66
43312;BME280;30041;48.300;16.352;2023-12-28T12:09:49;100155.69;;;22.38;43.02
43312;BME280;30041;48.300;16.352;2023-12-28T12:12:16;100158.19;;;22.40;42.85
43312;BME280;30041;48.300;16.352;2023-12-28T12:14:42;100156.28;;;22.41;42.63
43312;BME280;30041;48.300;16.352;2023-12-28T12:17:11;100149.84;;;22.42;42.70
43312;BME280;30041;48.300;16.352;2023-12-28T12:19:37;100142.31;;;22.44;42.84
43312;BME280;30041;48.300;16.352;2023-12-28T12:22:06;100134.00;;;22.45;42.77
43312;BME280;30041;48.300;16.352;2023-12-28T12:24:33;100131.28;;;22.45;43.07
43312;BME280;30041;48.300;16.352;2023-12-28T12:26:58;100131.06;;;22.47;42.95
43312;BME280;30041;48.300;16.352;2023-12-28T12:31:50;100131.41;;;22.50;42.57
43312;BME280;30041;48.300;16.352;2023-12-28T12:34:18;100140.09;;;22.52;42.58
43312;BME280;30041;48.300;16.352;2023-12-28T12:36:44;100136.38;;;22.53;42.89
43312;BME280;30041;48.300;16.352;2023-12-28T12:39:10;100134.25;;;22.55;42.68
43312;BME280;30041;48.300;16.352;2023-12-28T12:41:36;100127.19;;;22.54;42.64
43312;BME280;30041;48.300;16.352;2023-12-28T12:44:07;100117.78;;;22.57;42.68
43312;BME280;30041;48.300;16.352;2023-12-28T12:46:36;100120.50;;;22.57;42.56
43312;BME280;30041;48.300;16.352;2023-12-28T12:49:02;100125.69;;;22.58;42.48